sensor_id;sensor_type;location;lat;lon;timestamp;pressure;altitude;pressure_sealevel;temperature;humidity
34177;BME280;20450;49.074;9.158;2023-10-13T00:01:24;99800.16;;;17.74;80.21
34177;BME280;20450;49.074;9.158;2023-10-13T00:03:51;99802.38;;;17.77;80.31
34177;BME280;20450;49.074;9.158;2023-10-13T00:06:18;99793.34;;;17.77;79.98
34177;BME280;20450;49.074;9.158;2023-10-13T00:08:46;99796.91;;;17.77;80.05
34177;BME280;20450;49.074;9.158;2023-10-13T00:11:15;99793.34;;;17.77;79.65
34177;BME280;20450;49.074;9.158;2023-10-13T00:13:43;99793.94;;;17.79;79.63
34177;BME280;20450;49.074;9.158;2023-10-13T00:16:10;99787.09;;;17.76;79.31
34177;BME280;20450;49.074;9.158;2023-10-13T00:18:38;99788.00;;;17.60;79.57
34177;BME280;20450;49.074;9.158;2023-10-13T00:21:04;99781.38;;;17.56;79.85
34177;BME280;20450;49.074;9.158;2023-10-13T00:23:32;99779.75;;;17.55;79.89
34177;BME280;20450;49.074;9.158;2023-10-13T00:26:00;99779.16;;;17.53;80.82
34177;BME280;20450;49.074;9.158;2023-10-13T00:28:29;99784.97;;;17.56;80.38
34177;BME280;20450;49.074;9.158;2023-10-13T00:30:56;99777.03;;;17.55;80.44
34177;BME280;20450;49.074;9.158;2023-10-13T00:33:27;99780.00;;;17.53;80.13
34177;BME280;20450;49.074;9.158;2023-10-13T00:35:55;99784.63;;;17.53;80.17
34177;BME280;20450;49.074;9.158;2023-10-13T00:38:22;99778.03;;;17.49;80.09
34177;BME280;20450;49.074;9.158;2023-10-13T00:40:50;99778.56;;;17.46;79.95
34177;BME280;20450;49.074;9.158;2023-10-13T00:43:18;99783.44;;;17.44;79.79
34177;BME280;20450;49.074;9.158;2023-10-13T00:45:50;99784.53;;;17.43;79.68
34177;BME280;20450;49.074;9.158;2023-10-13T00:48:19;99783.44;;;17.44;79.80
34177;BME280;20450;49.074;9.158;2023-10-13T00:50:49;99781.66;;;17.33;79.72
34177;BME280;20450;49.074;9.158;2023-10-13T00:53:19;99775.63;;;17.31;79.90
34177;BME280;20450;49.074;9.158;2023-10-13T00:55:46;99782.41;;;17.28;79.59
34177;BME280;20450;49.074;9.158;2023-10-13T00:58:14;99788.38;;;17.25;79.64
34177;BME280;20450;49.074;9.158;2023-10-13T01:00:43;99779.34;;;17.25;80.31
34177;BME280;20450;49.074;9.158;2023-10-13T01:03:12;99775.16;;;17.17;81.43
34177;BME280;20450;49.074;9.158;2023-10-13T01:05:40;99774.72;;;17.04;83.26
34177;BME280;20450;49.074;9.158;2023-10-13T01:08:08;99769.41;;;16.92;83.39
34177;BME280;20450;49.074;9.158;2023-10-13T01:10:35;99772.28;;;16.86;83.79
34177;BME280;20450;49.074;9.158;2023-10-13T01:13:03;99773.38;;;16.85;84.08
34177;BME280;20450;49.074;9.158;2023-10-13T01:15:30;99767.66;;;16.86;84.26
34177;BME280;20450;49.074;9.158;2023-10-13T01:18:06;99763.59;;;16.89;84.00
34177;BME280;20450;49.074;9.158;2023-10-13T01:20:35;99761.97;;;16.88;83.92
34177;BME280;20450;49.074;9.158;2023-10-13T01:23:09;99768.00;;;16.90;83.28
34177;BME280;20450;49.074;9.158;2023-10-13T01:25:38;99762.34;;;16.75;83.52
34177;BME280;20450;49.074;9.158;2023-10-13T01:28:06;99761.44;;;16.69;84.13
34177;BME280;20450;49.074;9.158;2023-10-13T01:30:33;99755.94;;;16.48;84.94
34177;BME280;20450;49.074;9.158;2023-10-13T01:33:03;99756.44;;;16.45;85.21
34177;BME280;20450;49.074;9.158;2023-10-13T01:35:30;99754.53;;;16.29;85.72
34177;BME280;20450;49.074;9.158;2023-10-13T01:38:02;99755.53;;;16.23;86.04
34177;BME280;20450;49.074;9.158;2023-10-13T01:40:30;99754.69;;;16.22;86.22
34177;BME280;20450;49.074;9.158;2023-10-13T01:42:57;99743.78;;;16.22;85.94
34177;BME280;20450;49.074;9.158;2023-10-13T01:45:24;99748.84;;;16.14;86.15
34177;BME280;20450;49.074;9.158;2023-10-13T01:47:51;99745.03;;;16.15;85.89
34177;BME280;20450;49.074;9.158;2023-10-13T01:50:18;99743.47;;;16.19;85.73
34177;BME280;20450;49.074;9.158;2023-10-13T01:52:45;99735.84;;;16.21;85.32
34177;BME280;20450;49.074;9.158;2023-10-13T01:55:13;99735.31;;;16.19;85.07
34177;BME280;20450;49.074;9.158;2023-10-13T01:57:42;99734.22;;;16.20;85.83
34177;BME280;20450;49.074;9.158;2023-10-13T02:00:13;99733.88;;;16.16;85.50
34177;BME280;20450;49.074;9.158;2023-10-13T02:03:03;99738.03;;;16.19;85.28
34177;BME280;20450;49.074;9.158;2023-10-13T02:05:32;99729.00;;;16.18;85.32
34177;BME280;20450;49.074;9.158;2023-10-13T02:07:59;99734.38;;;16.13;85.43
34177;BME280;20450;49.074;9.158;2023-10-13T02:10:25;99729.16;;;16.12;85.40
34177;BME280;20450;49.074;9.158;2023-10-13T02:12:54;99728.03;;;16.08;85.37
34177;BME280;20450;49.074;9.158;2023-10-13T02:15:21;99730.25;;;16.11;85.54
34177;BME280;20450;49.074;9.158;2023-10-13T02:17:48;99726.44;;;16.12;85.49
34177;BME280;20450;49.074;9.158;2023-10-13T02:20:16;99729.75;;;16.14;85.09
34177;BME280;20450;49.074;9.158;2023-10-13T02:22:43;99720.34;;;16.05;85.07
34177;BME280;20450;49.074;9.158;2023-10-13T02:25:10;99715.47;;;16.07;85.18
34177;BME280;20450;49.074;9.158;2023-10-13T02:27:38;99717.72;;;16.10;85.16
34177;BME280;20450;49.074;9.158;2023-10-13T02:30:08;99721.50;;;16.09;84.68
34177;BME280;20450;49.074;9.158;2023-10-13T02:32:35;99713.00;;;16.05;84.29
34177;BME280;20450;49.074;9.158;2023-10-13T02:35:03;99715.97;;;16.04;84.28
34177;BME280;20450;49.074;9.158;2023-10-13T02:37:30;99714.00;;;15.99;84.38
34177;BME280;20450;49.074;9.158;2023-10-13T02:39:57;99713.75;;;16.01;84.52
34177;BME280;20450;49.074;9.158;2023-10-13T02:42:25;99702.00;;;16.00;84.45
34177;BME280;20450;49.074;9.158;2023-10-13T02:44:52;99697.97;;;16.03;84.39
34177;BME280;20450;49.074;9.158;2023-10-13T02:47:20;99691.44;;;16.04;84.33
34177;BME280;20450;49.074;9.158;2023-10-13T02:49:47;99697.22;;;16.07;84.00
34177;BME280;20450;49.074;9.158;2023-10-13T02:52:15;99702.66;;;16.07;83.70
34177;BME280;20450;49.074;9.158;2023-10-13T02:54:42;99691.22;;;16.05;83.58
34177;BME280;20450;49.074;9.158;2023-10-13T02:57:09;99686.50;;;15.84;84.32
34177;BME280;20450;49.074;9.158;2023-10-13T02:59:36;99690.72;;;15.92;84.68
34177;BME280;20450;49.074;9.158;2023-10-13T03:02:03;99695.25;;;15.86;85.55
34177;BME280;20450;49.074;9.158;2023-10-13T03:04:32;99688.72;;;15.87;85.24
34177;BME280;20450;49.074;9.158;2023-10-13T03:07:01;99691.22;;;15.89;85.35
34177;BME280;20450;49.074;9.158;2023-10-13T03:09:29;99678.97;;;15.74;85.81
34177;BME280;20450;49.074;9.158;2023-10-13T03:11:56;99683.69;;;15.79;86.09
34177;BME280;20450;49.074;9.158;2023-10-13T03:14:31;99693.84;;;15.84;86.22
34177;BME280;20450;49.074;9.158;2023-10-13T03:17:13;99684.09;;;15.88;86.26
34177;BME280;20450;49.074;9.158;2023-10-13T03:19:43;99685.56;;;15.95;85.79
34177;BME280;20450;49.074;9.158;2023-10-13T03:22:11;99684.03;;;15.99;85.73
34177;BME280;20450;49.074;9.158;2023-10-13T03:24:40;99688.13;;;16.02;85.08
34177;BME280;20450;49.074;9.158;2023-10-13T03:27:07;99687.66;;;16.05;84.88
34177;BME280;20450;49.074;9.158;2023-10-13T03:29:35;99685.75;;;16.05;84.48
34177;BME280;20450;49.074;9.158;2023-10-13T03:32:03;99681.56;;;15.98;84.68
34177;BME280;20450;49.074;9.158;2023-10-13T03:34:32;99695.22;;;16.03;84.80
34177;BME280;20450;49.074;9.158;2023-10-13T03:37:00;99691.13;;;16.00;84.98
34177;BME280;20450;49.074;9.158;2023-10-13T03:39:28;99676.09;;;15.98;84.86
34177;BME280;20450;49.074;9.158;2023-10-13T03:41:58;99673.63;;;15.96;84.48
34177;BME280;20450;49.074;9.158;2023-10-13T03:44:27;99682.03;;;15.95;83.90
34177;BME280;20450;49.074;9.158;2023-10-13T03:46:54;99686.50;;;15.84;83.33
34177;BME280;20450;49.074;9.158;2023-10-13T03:49:22;99682.88;;;15.79;83.59
34177;BME280;20450;49.074;9.158;2023-10-13T03:51:49;99678.47;;;15.77;83.12
34177;BME280;20450;49.074;9.158;2023-10-13T03:54:17;99678.72;;;15.76;82.97
34177;BME280;20450;49.074;9.158;2023-10-13T03:56:44;99682.69;;;15.68;82.51
34177;BME280;20450;49.074;9.158;2023-10-13T03:59:12;99681.03;;;15.67;82.84
34177;BME280;20450;49.074;9.158;2023-10-13T04:01:40;99672.38;;;15.70;82.60
34177;BME280;20450;49.074;9.158;2023-10-13T04:04:08;99674.38;;;15.75;82.47
34177;BME280;20450;49.074;9.158;2023-10-13T04:06:39;99683.94;;;15.77;82.46
34177;BME280;20450;49.074;9.158;2023-10-13T04:09:06;99678.97;;;15.74;82.16
34177;BME280;20450;49.074;9.158;2023-10-13T04:11:34;99684.34;;;15.69;82.94
34177;BME280;20450;49.074;9.158;2023-10-13T04:14:03;99679.03;;;15.46;83.66
34177;BME280;20450;49.074;9.158;2023-10-13T04:16:30;99681.16;;;15.44;84.09
34177;BME280;20450;49.074;9.158;2023-10-13T04:18:57;99677.94;;;15.31;84.60
34177;BME280;20450;49.074;9.158;2023-10-13T04:21:28;99679.63;;;15.20;84.49
34177;BME280;20450;49.074;9.158;2023-10-13T04:23:55;99669.22;;;15.17;84.95
34177;BME280;20450;49.074;9.158;2023-10-13T04:26:22;99670.63;;;15.20;85.16
34177;BME280;20450;49.074;9.158;2023-10-13T04:28:50;99667.66;;;15.21;85.29
34177;BME280;20450;49.074;9.158;2023-10-13T04:31:19;99663.88;;;15.22;84.54
34177;BME280;20450;49.074;9.158;2023-10-13T04:33:46;99651.69;;;15.25;84.53
34177;BME280;20450;49.074;9.158;2023-10-13T04:36:14;99644.16;;;15.15;84.57
34177;BME280;20450;49.074;9.158;2023-10-13T04:38:43;99648.19;;;15.13;84.69
34177;BME280;20450;49.074;9.158;2023-10-13T04:41:12;99641.19;;;15.17;85.11
34177;BME280;20450;49.074;9.158;2023-10-13T04:43:39;99638.81;;;15.20;85.13
34177;BME280;20450;49.074;9.158;2023-10-13T04:46:09;99640.56;;;15.26;84.73
34177;BME280;20450;49.074;9.158;2023-10-13T04:48:36;99642.78;;;15.29;84.55
34177;BME280;20450;49.074;9.158;2023-10-13T04:51:08;99629.81;;;15.20;84.62
34177;BME280;20450;49.074;9.158;2023-10-13T04:53:35;99633.16;;;15.10;85.00
34177;BME280;20450;49.074;9.158;2023-10-13T04:56:03;99625.84;;;15.11;85.38
34177;BME280;20450;49.074;9.158;2023-10-13T04:58:30;99628.31;;;15.12;85.10
34177;BME280;20450;49.074;9.158;2023-10-13T05:01:00;99632.69;;;15.13;85.26
34177;BME280;20450;49.074;9.158;2023-10-13T05:03:28;99626.19;;;15.14;85.42
34177;BME280;20450;49.074;9.158;2023-10-13T05:05:55;99625.22;;;15.20;85.26
34177;BME280;20450;49.074;9.158;2023-10-13T05:08:22;99620.31;;;15.22;85.16
34177;BME280;20450;49.074;9.158;2023-10-13T05:10:49;99617.13;;;15.25;84.58
34177;BME280;20450;49.074;9.158;2023-10-13T05:13:17;99622.41;;;15.32;85.20
34177;BME280;20450;49.074;9.158;2023-10-13T05:15:44;99618.25;;;15.57;91.03
34177;BME280;20450;49.074;9.158;2023-10-13T05:18:15;99617.56;;;15.84;91.67
34177;BME280;20450;49.074;9.158;2023-10-13T05:20:47;99612.47;;;15.87;89.87
34177;BME280;20450;49.074;9.158;2023-10-13T05:23:15;99611.22;;;15.95;88.50
34177;BME280;20450;49.074;9.158;2023-10-13T05:25:44;99623.25;;;15.99;86.75
34177;BME280;20450;49.074;9.158;2023-10-13T05:28:11;99609.00;;;15.92;84.42
34177;BME280;20450;49.074;9.158;2023-10-13T05:30:59;99607.50;;;15.84;84.11
34177;BME280;20450;49.074;9.158;2023-10-13T05:33:26;99602.47;;;15.59;82.70
34177;BME280;20450;49.074;9.158;2023-10-13T05:35:54;99612.84;;;15.29;79.95
34177;BME280;20450;49.074;9.158;2023-10-13T05:38:22;99609.06;;;15.30;80.03
34177;BME280;20450;49.074;9.158;2023-10-13T05:40:52;99617.00;;;15.48;82.22
34177;BME280;20450;49.074;9.158;2023-10-13T05:43:21;99625.84;;;15.72;82.53
34177;BME280;20450;49.074;9.158;2023-10-13T05:45:48;99612.25;;;15.94;82.41
34177;BME280;20450;49.074;9.158;2023-10-13T05:48:16;99625.88;;;16.10;81.05
34177;BME280;20450;49.074;9.158;2023-10-13T05:50:44;99624.94;;;16.21;77.40
34177;BME280;20450;49.074;9.158;2023-10-13T05:53:15;99619.75;;;16.20;72.37
34177;BME280;20450;49.074;9.158;2023-10-13T05:55:47;99619.19;;;16.39;72.82
34177;BME280;20450;49.074;9.158;2023-10-13T05:58:15;99620.97;;;16.50;73.86
34177;BME280;20450;49.074;9.158;2023-10-13T06:00:46;99619.44;;;16.54;71.59
34177;BME280;20450;49.074;9.158;2023-10-13T06:03:14;99626.88;;;16.64;72.99
34177;BME280;20450;49.074;9.158;2023-10-13T06:05:45;99617.13;;;16.68;72.43
34177;BME280;20450;49.074;9.158;2023-10-13T06:08:12;99629.66;;;16.47;70.70
34177;BME280;20450;49.074;9.158;2023-10-13T06:10:41;99631.47;;;16.58;70.73
34177;BME280;20450;49.074;9.158;2023-10-13T06:13:10;99628.56;;;16.65;71.88
34177;BME280;20450;49.074;9.158;2023-10-13T06:15:37;99616.31;;;16.67;70.73
34177;BME280;20450;49.074;9.158;2023-10-13T06:18:05;99627.28;;;16.34;71.26
34177;BME280;20450;49.074;9.158;2023-10-13T06:20:38;99628.56;;;16.27;72.01
34177;BME280;20450;49.074;9.158;2023-10-13T06:23:06;99618.38;;;16.82;70.61
34177;BME280;20450;49.074;9.158;2023-10-13T06:25:33;99622.97;;;17.29;70.09
34177;BME280;20450;49.074;9.158;2023-10-13T06:28:03;99632.19;;;17.82;69.29
34177;BME280;20450;49.074;9.158;2023-10-13T06:30:30;99621.56;;;18.32;68.33
34177;BME280;20450;49.074;9.158;2023-10-13T06:32:57;99614.88;;;18.49;65.50
34177;BME280;20450;49.074;9.158;2023-10-13T06:35:25;99623.63;;;18.46;65.67
34177;BME280;20450;49.074;9.158;2023-10-13T06:37:52;99624.94;;;18.39;60.70
34177;BME280;20450;49.074;9.158;2023-10-13T06:40:22;99617.53;;;19.01;62.20
34177;BME280;20450;49.074;9.158;2023-10-13T06:42:50;99604.22;;;19.44;62.50
34177;BME280;20450;49.074;9.158;2023-10-13T06:45:19;99615.69;;;19.87;60.72
34177;BME280;20450;49.074;9.158;2023-10-13T06:47:46;99607.94;;;20.39;58.97
34177;BME280;20450;49.074;9.158;2023-10-13T06:50:16;99618.06;;;21.07;58.85
34177;BME280;20450;49.074;9.158;2023-10-13T06:52:45;99636.16;;;21.57;55.64
34177;BME280;20450;49.074;9.158;2023-10-13T06:55:15;99636.00;;;21.82;52.80
34177;BME280;20450;49.074;9.158;2023-10-13T06:57:43;99633.59;;;21.31;52.37
34177;BME280;20450;49.074;9.158;2023-10-13T07:00:12;99630.44;;;21.09;53.79
34177;BME280;20450;49.074;9.158;2023-10-13T07:02:42;99622.72;;;20.48;54.02
34177;BME280;20450;49.074;9.158;2023-10-13T07:05:09;99619.50;;;20.21;54.72
34177;BME280;20450;49.074;9.158;2023-10-13T07:07:36;99619.25;;;20.12;54.44
34177;BME280;20450;49.074;9.158;2023-10-13T07:10:08;99614.06;;;19.71;55.85
34177;BME280;20450;49.074;9.158;2023-10-13T07:12:35;99614.59;;;20.13;54.54
34177;BME280;20450;49.074;9.158;2023-10-13T07:15:06;99608.50;;;20.41;55.17
34177;BME280;20450;49.074;9.158;2023-10-13T07:17:34;99609.97;;;21.69;53.90
34177;BME280;20450;49.074;9.158;2023-10-13T07:20:03;99642.38;;;22.34;49.20
34177;BME280;20450;49.074;9.158;2023-10-13T07:22:31;99647.75;;;22.91;47.51
34177;BME280;20450;49.074;9.158;2023-10-13T07:24:58;99641.13;;;23.35;46.20
34177;BME280;20450;49.074;9.158;2023-10-13T07:27:25;99650.91;;;24.15;46.24
34177;BME280;20450;49.074;9.158;2023-10-13T07:29:54;99657.03;;;24.98;43.95
34177;BME280;20450;49.074;9.158;2023-10-13T07:32:23;99642.59;;;24.87;43.91
34177;BME280;20450;49.074;9.158;2023-10-13T07:34:50;99643.94;;;25.75;43.08
34177;BME280;20450;49.074;9.158;2023-10-13T07:37:22;99660.59;;;26.58;41.29
34177;BME280;20450;49.074;9.158;2023-10-13T07:39:54;99671.09;;;27.17;38.14
34177;BME280;20450;49.074;9.158;2023-10-13T07:42:21;99679.88;;;28.01;37.01
34177;BME280;20450;49.074;9.158;2023-10-13T07:44:48;99683.91;;;28.46;35.56
34177;BME280;20450;49.074;9.158;2023-10-13T07:47:15;99690.91;;;29.36;34.23
34177;BME280;20450;49.074;9.158;2023-10-13T07:49:43;99694.19;;;30.20;33.28
34177;BME280;20450;49.074;9.158;2023-10-13T07:52:11;99700.16;;;30.30;32.52
34177;BME280;20450;49.074;9.158;2023-10-13T07:54:43;99727.75;;;30.03;30.70
34177;BME280;20450;49.074;9.158;2023-10-13T07:57:12;99711.47;;;30.58;30.80
34177;BME280;20450;49.074;9.158;2023-10-13T07:59:41;99707.25;;;30.40;31.30
34177;BME280;20450;49.074;9.158;2023-10-13T08:02:08;99707.78;;;30.66;31.55
34177;BME280;20450;49.074;9.158;2023-10-13T08:04:35;99702.56;;;29.50;31.78
34177;BME280;20450;49.074;9.158;2023-10-13T08:07:02;99681.19;;;29.13;32.37
34177;BME280;20450;49.074;9.158;2023-10-13T08:09:30;99669.06;;;29.87;32.50
34177;BME280;20450;49.074;9.158;2023-10-13T08:11:59;99678.47;;;29.54;31.02
34177;BME280;20450;49.074;9.158;2023-10-13T08:14:26;99651.78;;;27.94;34.82
34177;BME280;20450;49.074;9.158;2023-10-13T08:17:06;99642.34;;;26.26;35.63
34177;BME280;20450;49.074;9.158;2023-10-13T08:19:33;99606.75;;;25.10;38.88
34177;BME280;20450;49.074;9.158;2023-10-13T08:22:02;99600.78;;;25.16;39.67
34177;BME280;20450;49.074;9.158;2023-10-13T08:24:29;99594.06;;;24.95;39.52
34177;BME280;20450;49.074;9.158;2023-10-13T08:26:58;99595.09;;;24.45;40.74
34177;BME280;20450;49.074;9.158;2023-10-13T08:29:25;99601.78;;;24.84;40.57
34177;BME280;20450;49.074;9.158;2023-10-13T08:31:54;99580.78;;;23.52;42.23
34177;BME280;20450;49.074;9.158;2023-10-13T08:34:22;99588.38;;;23.60;41.95
34177;BME280;20450;49.074;9.158;2023-10-13T08:36:50;99579.16;;;23.32;42.30
34177;BME280;20450;49.074;9.158;2023-10-13T08:39:17;99568.91;;;23.51;42.46
34177;BME280;20450;49.074;9.158;2023-10-13T08:41:45;99581.31;;;23.54;42.45
34177;BME280;20450;49.074;9.158;2023-10-13T08:44:16;99583.22;;;24.17;41.58
34177;BME280;20450;49.074;9.158;2023-10-13T08:46:44;99595.50;;;23.61;41.31
34177;BME280;20450;49.074;9.158;2023-10-13T08:49:12;99593.44;;;24.17;41.12
34177;BME280;20450;49.074;9.158;2023-10-13T08:51:40;99597.06;;;24.44;40.50
34177;BME280;20450;49.074;9.158;2023-10-13T08:54:11;99595.91;;;24.59;40.86
34177;BME280;20450;49.074;9.158;2023-10-13T08:56:39;99590.03;;;24.06;41.02
34177;BME280;20450;49.074;9.158;2023-10-13T08:59:06;99594.00;;;24.73;40.24
34177;BME280;20450;49.074;9.158;2023-10-13T09:01:36;99603.38;;;24.99;38.61
34177;BME280;20450;49.074;9.158;2023-10-13T09:04:05;99598.44;;;25.10;39.01
34177;BME280;20450;49.074;9.158;2023-10-13T09:06:33;99606.63;;;25.94;37.46
34177;BME280;20450;49.074;9.158;2023-10-13T09:09:04;99600.50;;;25.53;38.12
34177;BME280;20450;49.074;9.158;2023-10-13T09:11:36;99588.69;;;25.12;38.85
34177;BME280;20450;49.074;9.158;2023-10-13T09:14:12;99585.16;;;24.98;39.26
34177;BME280;20450;49.074;9.158;2023-10-13T09:16:42;99580.91;;;25.14;38.89
34177;BME280;20450;49.074;9.158;2023-10-13T09:19:09;99571.16;;;24.81;39.36
34177;BME280;20450;49.074;9.158;2023-10-13T09:21:37;99565.69;;;25.39;39.01
34177;BME280;20450;49.074;9.158;2023-10-13T09:24:08;99583.91;;;25.53;38.19
34177;BME280;20450;49.074;9.158;2023-10-13T09:26:36;99580.38;;;26.05;37.68
34177;BME280;20450;49.074;9.158;2023-10-13T09:29:14;99592.81;;;25.72;37.66
34177;BME280;20450;49.074;9.158;2023-10-13T09:31:43;99578.75;;;27.00;36.11
34177;BME280;20450;49.074;9.158;2023-10-13T09:34:19;99584.66;;;26.59;36.26
34177;BME280;20450;49.074;9.158;2023-10-13T09:36:47;99576.97;;;27.21;35.36
34177;BME280;20450;49.074;9.158;2023-10-13T09:39:15;99593.81;;;27.67;34.29
34177;BME280;20450;49.074;9.158;2023-10-13T09:41:42;99572.41;;;26.51;35.57
34177;BME280;20450;49.074;9.158;2023-10-13T09:44:10;99566.25;;;26.54;35.57
34177;BME280;20450;49.074;9.158;2023-10-13T09:46:37;99584.03;;;27.61;33.98
34177;BME280;20450;49.074;9.158;2023-10-13T09:49:12;99571.91;;;27.06;34.43
34177;BME280;20450;49.074;9.158;2023-10-13T09:51:40;99579.66;;;28.23;33.24
34177;BME280;20450;49.074;9.158;2023-10-13T09:54:13;99584.16;;;26.96;33.86
34177;BME280;20450;49.074;9.158;2023-10-13T09:57:08;99564.03;;;26.73;34.63
34177;BME280;20450;49.074;9.158;2023-10-13T09:59:46;99556.66;;;26.21;35.74
34177;BME280;20450;49.074;9.158;2023-10-13T10:02:18;99551.28;;;26.72;34.53
34177;BME280;20450;49.074;9.158;2023-10-13T10:04:54;99566.38;;;27.23;32.85
34177;BME280;20450;49.074;9.158;2023-10-13T10:07:24;99562.28;;;26.95;34.01
34177;BME280;20450;49.074;9.158;2023-10-13T10:09:56;99565.09;;;27.46;32.74
34177;BME280;20450;49.074;9.158;2023-10-13T10:12:33;99556.91;;;27.75;32.39
34177;BME280;20450;49.074;9.158;2023-10-13T10:15:21;99575.09;;;28.27;31.51
34177;BME280;20450;49.074;9.158;2023-10-13T10:17:53;99578.88;;;28.22;31.36
34177;BME280;20450;49.074;9.158;2023-10-13T10:20:29;99576.78;;;29.56;30.49
34177;BME280;20450;49.074;9.158;2023-10-13T10:22:58;99612.75;;;29.20;28.77
34177;BME280;20450;49.074;9.158;2023-10-13T10:25:30;99593.22;;;30.47;28.67
34177;BME280;20450;49.074;9.158;2023-10-13T10:27:58;99600.72;;;30.22;27.57
34177;BME280;20450;49.074;9.158;2023-10-13T10:30:26;99592.88;;;29.71;28.42
34177;BME280;20450;49.074;9.158;2023-10-13T10:32:54;99590.72;;;29.89;28.10
34177;BME280;20450;49.074;9.158;2023-10-13T10:35:23;99597.28;;;30.50;27.32
34177;BME280;20450;49.074;9.158;2023-10-13T10:37:54;99618.78;;;31.45;25.50
34177;BME280;20450;49.074;9.158;2023-10-13T10:40:23;99623.25;;;31.62;25.26
34177;BME280;20450;49.074;9.158;2023-10-13T10:42:51;99604.28;;;32.38;25.84
34177;BME280;20450;49.074;9.158;2023-10-13T10:45:21;99618.56;;;33.45;23.24
34177;BME280;20450;49.074;9.158;2023-10-13T10:47:48;99633.19;;;35.24;22.05
34177;BME280;20450;49.074;9.158;2023-10-13T10:50:25;99632.25;;;32.69;23.62
34177;BME280;20450;49.074;9.158;2023-10-13T10:52:55;99606.53;;;33.10;23.19
34177;BME280;20450;49.074;9.158;2023-10-13T10:55:22;99610.91;;;33.80;22.02
34177;BME280;20450;49.074;9.158;2023-10-13T10:57:58;99613.78;;;34.67;22.04
34177;BME280;20450;49.074;9.158;2023-10-13T11:00:26;99607.03;;;36.42;20.61
34177;BME280;20450;49.074;9.158;2023-10-13T11:02:54;99627.00;;;36.70;19.31
34177;BME280;20450;49.074;9.158;2023-10-13T11:05:25;99645.19;;;33.74;21.77
34177;BME280;20450;49.074;9.158;2023-10-13T11:07:52;99581.81;;;32.50;24.35
34177;BME280;20450;49.074;9.158;2023-10-13T11:10:21;99573.00;;;33.67;22.66
34177;BME280;20450;49.074;9.158;2023-10-13T11:12:54;99578.44;;;33.79;22.12
34177;BME280;20450;49.074;9.158;2023-10-13T11:15:22;99578.53;;;35.74;21.18
34177;BME280;20450;49.074;9.158;2023-10-13T11:17:50;99597.09;;;36.99;18.88
34177;BME280;20450;49.074;9.158;2023-10-13T11:20:18;99602.72;;;37.60;18.74
34177;BME280;20450;49.074;9.158;2023-10-13T11:22:46;99610.53;;;37.91;18.10
34177;BME280;20450;49.074;9.158;2023-10-13T11:25:22;99602.06;;;36.69;19.60
34177;BME280;20450;49.074;9.158;2023-10-13T11:27:50;99591.91;;;35.28;20.06
34177;BME280;20450;49.074;9.158;2023-10-13T11:30:18;99576.91;;;34.01;21.57
34177;BME280;20450;49.074;9.158;2023-10-13T11:32:57;99554.66;;;34.79;21.40
34177;BME280;20450;49.074;9.158;2023-10-13T11:35:25;99558.97;;;35.51;20.22
34177;BME280;20450;49.074;9.158;2023-10-13T11:37:54;99557.81;;;36.26;19.69
34177;BME280;20450;49.074;9.158;2023-10-13T11:40:22;99560.38;;;33.96;21.56
34177;BME280;20450;49.074;9.158;2023-10-13T11:42:52;99515.88;;;31.75;24.46
34177;BME280;20450;49.074;9.158;2023-10-13T11:45:19;99493.41;;;31.99;24.62
34177;BME280;20450;49.074;9.158;2023-10-13T11:47:46;99483.44;;;31.43;24.96
34177;BME280;20450;49.074;9.158;2023-10-13T11:50:15;99465.06;;;30.38;25.81
34177;BME280;20450;49.074;9.158;2023-10-13T11:52:44;99438.38;;;30.37;27.22
34177;BME280;20450;49.074;9.158;2023-10-13T11:55:11;99435.94;;;31.27;26.22
34177;BME280;20450;49.074;9.158;2023-10-13T11:57:39;99432.47;;;31.89;26.11
34177;BME280;20450;49.074;9.158;2023-10-13T12:00:07;99466.44;;;31.91;23.31
34177;BME280;20450;49.074;9.158;2023-10-13T12:02:37;99500.38;;;31.77;22.16
34177;BME280;20450;49.074;9.158;2023-10-13T12:05:06;99489.41;;;31.84;22.24
34177;BME280;20450;49.074;9.158;2023-10-13T12:07:33;99482.91;;;31.80;22.19
34177;BME280;20450;49.074;9.158;2023-10-13T12:10:00;99477.88;;;31.86;22.77
34177;BME280;20450;49.074;9.158;2023-10-13T12:12:28;99475.28;;;31.93;23.23
34177;BME280;20450;49.074;9.158;2023-10-13T12:14:57;99452.19;;;32.11;23.56
34177;BME280;20450;49.074;9.158;2023-10-13T12:17:26;99446.44;;;31.89;23.91
34177;BME280;20450;49.074;9.158;2023-10-13T12:19:55;99428.97;;;31.33;24.94
34177;BME280;20450;49.074;9.158;2023-10-13T12:22:25;99414.03;;;31.57;25.33
34177;BME280;20450;49.074;9.158;2023-10-13T12:24:52;99409.19;;;31.69;24.22
34177;BME280;20450;49.074;9.158;2023-10-13T12:27:19;99432.47;;;31.30;23.71
34177;BME280;20450;49.074;9.158;2023-10-13T12:29:54;99432.94;;;31.48;22.78
34177;BME280;20450;49.074;9.158;2023-10-13T12:32:26;99430.38;;;31.70;23.00
34177;BME280;20450;49.074;9.158;2023-10-13T12:34:53;99437.13;;;31.69;22.75
34177;BME280;20450;49.074;9.158;2023-10-13T12:37:20;99413.34;;;30.77;24.57
34177;BME280;20450;49.074;9.158;2023-10-13T12:39:48;99421.78;;;31.20;22.96
34177;BME280;20450;49.074;9.158;2023-10-13T12:42:15;99422.47;;;31.45;22.66
34177;BME280;20450;49.074;9.158;2023-10-13T12:44:48;99424.59;;;31.63;22.93
34177;BME280;20450;49.074;9.158;2023-10-13T12:47:23;99439.72;;;31.62;21.88
34177;BME280;20450;49.074;9.158;2023-10-13T12:49:52;99435.84;;;31.51;22.04
34177;BME280;20450;49.074;9.158;2023-10-13T12:52:19;99431.69;;;31.45;21.85
34177;BME280;20450;49.074;9.158;2023-10-13T12:54:47;99431.38;;;31.35;21.95
34177;BME280;20450;49.074;9.158;2023-10-13T12:57:14;99436.19;;;31.50;21.81
34177;BME280;20450;49.074;9.158;2023-10-13T12:59:41;99430.59;;;31.22;21.95
34177;BME280;20450;49.074;9.158;2023-10-13T13:02:08;99418.72;;;31.25;22.67
34177;BME280;20450;49.074;9.158;2023-10-13T13:04:35;99422.59;;;30.93;22.55
34177;BME280;20450;49.074;9.158;2023-10-13T13:07:06;99405.03;;;30.93;23.24
34177;BME280;20450;49.074;9.158;2023-10-13T13:09:33;99396.41;;;30.98;23.53